createdAt,value
2017-08-28T00:00:24.075Z,14.08
2017-08-28T00:01:18.100Z,14.08
2017-08-28T00:02:18.066Z,14.10
2017-08-28T00:03:13.138Z,14.08
2017-08-28T00:04:13.309Z,14.12
2017-08-28T00:05:07.222Z,14.12
2017-08-28T00:06:08.273Z,14.16
2017-08-28T00:07:09.303Z,14.14
2017-08-28T00:08:09.326Z,14.08
2017-08-28T00:09:09.295Z,14.06
2017-08-28T00:10:04.344Z,14.00
2017-08-28T00:10:58.429Z,13.98
2017-08-28T00:11:58.438Z,13.97
2017-08-28T00:12:53.495Z,13.89
2017-08-28T00:13:48.520Z,13.92
2017-08-28T00:14:49.659Z,13.94
2017-08-28T00:15:49.566Z,13.92
2017-08-28T00:16:49.681Z,13.96
2017-08-28T00:17:37.711Z,13.94
2017-08-28T00:18:31.677Z,13.98
2017-08-28T00:19:25.825Z,14.02
2017-08-28T00:20:19.834Z,13.98
2017-08-28T00:21:13.860Z,14.01
2017-08-28T00:22:07.869Z,14.00
2017-08-28T00:23:02.931Z,13.94
2017-08-28T00:23:51.971Z,13.96
2017-08-28T00:24:46.025Z,13.98
2017-08-28T00:25:39.986Z,13.98
2017-08-28T00:26:35.086Z,13.95
2017-08-28T00:27:23.111Z,13.98
2017-08-28T00:28:18.213Z,14.00
2017-08-28T00:29:12.224Z,14.04
2017-08-28T00:30:13.257Z,14.07
2017-08-28T00:31:13.259Z,14.06
2017-08-28T00:32:13.335Z,14.05
2017-08-28T00:33:07.251Z,14.01
2017-08-28T00:34:07.416Z,13.99
2017-08-28T00:35:02.402Z,13.96
2017-08-28T00:35:57.447Z,13.93
2017-08-28T00:36:58.492Z,13.88
2017-08-28T00:37:58.564Z,13.82
2017-08-28T00:38:53.594Z,13.76
2017-08-28T00:39:53.534Z,13.76
2017-08-28T00:40:47.610Z,13.76
2017-08-28T00:41:48.622Z,13.79
2017-08-28T00:42:48.688Z,13.79
2017-08-28T00:43:43.745Z,13.78
2017-08-28T00:44:43.694Z,13.76
2017-08-28T00:45:37.741Z,13.72
2017-08-28T00:46:37.835Z,13.69
2017-08-28T00:47:32.848Z,13.70
2017-08-28T00:48:27.967Z,13.71
2017-08-28T00:49:27.914Z,13.73
2017-08-28T00:50:22.933Z,13.68
2017-08-28T00:51:18.006Z,13.64
2017-08-28T00:52:24.011Z,13.61
2017-08-28T00:53:17.978Z,13.54
2017-08-28T00:54:18.010Z,13.60
2017-08-28T00:55:13.151Z,13.56
2017-08-28T00:56:13.176Z,13.55
2017-08-28T00:57:07.137Z,13.54
2017-08-28T00:58:07.143Z,13.47
2017-08-28T00:59:02.239Z,13.44
2017-08-28T00:59:57.322Z,13.40
2017-08-28T01:00:58.357Z,13.36
2017-08-28T01:01:59.366Z,13.35
2017-08-28T01:02:54.405Z,13.32
2017-08-28T01:03:48.506Z,13.36
2017-08-28T01:04:48.448Z,13.33
2017-08-28T01:05:43.501Z,13.30
2017-08-28T01:06:43.510Z,13.32
2017-08-28T01:07:43.545Z,13.35
2017-08-28T01:08:49.570Z,13.33
2017-08-28T01:09:44.553Z,13.34
2017-08-28T01:10:44.637Z,13.33
2017-08-28T01:11:39.659Z,13.33
2017-08-28T01:12:39.716Z,13.30
2017-08-28T01:13:39.777Z,13.30
2017-08-28T01:14:45.793Z,13.26
2017-08-28T01:15:45.731Z,13.26
2017-08-28T01:16:46.799Z,13.25
2017-08-28T01:17:46.899Z,13.22
2017-08-28T01:18:46.844Z,13.20
2017-08-28T01:19:40.873Z,13.18
2017-08-28T01:20:41.053Z,13.16
2017-08-28T01:21:36.016Z,13.11
2017-08-28T01:22:36.041Z,13.13
2017-08-28T01:23:30.127Z,13.10
2017-08-28T01:24:30.046Z,13.12
2017-08-28T01:25:25.151Z,13.15
2017-08-28T01:26:20.198Z,13.20
2017-08-28T01:27:20.197Z,13.25
2017-08-28T01:28:15.238Z,13.24
2017-08-28T01:29:10.369Z,13.23
2017-08-28T01:30:11.280Z,13.28
2017-08-28T01:31:11.304Z,13.32
2017-08-28T01:32:11.402Z,13.30
2017-08-28T01:33:06.364Z,13.28
2017-08-28T01:34:00.420Z,13.26
2017-08-28T01:35:00.441Z,13.20
2017-08-28T01:35:55.450Z,13.18
2017-08-28T01:36:55.605Z,13.20
2017-08-28T01:37:49.609Z,13.22
2017-08-28T01:38:49.577Z,13.23
2017-08-28T01:39:44.659Z,13.29
2017-08-28T01:40:39.759Z,13.44
2017-08-28T01:41:39.750Z,13.53
2017-08-28T01:42:34.749Z,13.56
2017-08-28T01:43:29.780Z,13.54
2017-08-28T01:44:30.886Z,13.61
2017-08-28T01:45:30.815Z,13.59
2017-08-28T01:46:30.984Z,13.58
2017-08-28T01:47:25.921Z,13.54
2017-08-28T01:48:19.996Z,13.57
2017-08-28T01:49:20.053Z,13.63
2017-08-28T01:50:14.814Z,13.64
2017-08-28T01:51:15.104Z,13.58
2017-08-28T01:52:09.132Z,13.56
2017-08-28T01:53:09.193Z,13.54
2017-08-28T01:54:04.192Z,13.53
2017-08-28T01:54:59.217Z,13.54
2017-08-28T01:55:59.276Z,13.58
2017-08-28T01:56:54.317Z,13.54
2017-08-28T01:57:49.369Z,13.50
2017-08-28T01:58:50.377Z,13.46
2017-08-28T01:59:50.413Z,13.38
2017-08-28T02:00:50.431Z,13.41
2017-08-28T02:01:45.449Z,13.57
2017-08-28T02:02:39.547Z,13.58
2017-08-28T02:03:39.646Z,13.60
2017-08-28T02:04:34.621Z,13.58
2017-08-28T02:05:34.643Z,13.54
2017-08-28T02:06:28.686Z,13.54
2017-08-28T02:07:28.688Z,13.54
2017-08-28T02:08:23.746Z,13.47
2017-08-28T02:09:18.778Z,13.48
2017-08-28T02:10:18.753Z,13.54
2017-08-28T02:11:13.846Z,13.49
2017-08-28T02:12:08.841Z,13.51
2017-08-28T02:13:09.842Z,13.49
2017-08-28T02:14:09.906Z,13.48
2017-08-28T02:15:09.983Z,13.47
2017-08-28T02:16:05.047Z,13.47
2017-08-28T02:16:58.967Z,13.44
2017-08-28T02:17:59.049Z,13.40
2017-08-28T02:18:54.060Z,13.37
2017-08-28T02:19:54.077Z,13.36
2017-08-28T02:20:48.198Z,13.34
2017-08-28T02:21:48.173Z,13.29
2017-08-28T02:22:43.230Z,13.22
2017-08-28T02:23:38.263Z,13.16
2017-08-28T02:24:38.358Z,13.19
2017-08-28T02:25:33.333Z,13.18
2017-08-28T02:26:28.418Z,13.21
2017-08-28T02:27:29.474Z,13.25
2017-08-28T02:28:29.427Z,13.26
2017-08-28T02:29:29.481Z,13.27
2017-08-28T02:30:24.543Z,13.26
2017-08-28T02:31:18.534Z,13.22
2017-08-28T02:32:18.603Z,13.23
2017-08-28T02:33:13.620Z,13.18
2017-08-28T02:34:13.701Z,13.24
2017-08-28T02:35:07.696Z,13.22
2017-08-28T02:36:07.640Z,13.22
2017-08-28T02:37:02.769Z,13.16
2017-08-28T02:37:57.791Z,13.15
2017-08-28T02:38:57.820Z,13.17
2017-08-28T02:39:52.855Z,13.18
2017-08-28T02:40:47.923Z,13.18
2017-08-28T02:41:48.944Z,13.10
2017-08-28T02:42:49.904Z,13.01
2017-08-28T02:43:50.003Z,13.09
2017-08-28T02:44:51.070Z,13.03
2017-08-28T02:45:45.065Z,13.04
2017-08-28T02:46:46.122Z,13.04
2017-08-28T02:47:46.108Z,13.01
2017-08-28T02:48:41.131Z,13.02
2017-08-28T02:49:41.426Z,13.01
2017-08-28T02:50:35.278Z,12.98
2017-08-28T02:51:35.290Z,13.05
2017-08-28T02:52:30.267Z,13.04
2017-08-28T02:53:30.302Z,13.15
2017-08-28T02:54:30.367Z,13.18
2017-08-28T02:55:30.401Z,13.24
2017-08-28T02:56:24.377Z,13.24
2017-08-28T02:57:24.399Z,13.30
2017-08-28T02:58:19.511Z,13.27
2017-08-28T02:59:14.551Z,13.27
2017-08-28T03:00:14.526Z,13.31
2017-08-28T03:01:09.710Z,13.28
2017-08-28T03:02:04.677Z,13.26
2017-08-28T03:03:10.707Z,13.17
2017-08-28T03:04:04.709Z,13.15
2017-08-28T03:05:04.784Z,13.08
2017-08-28T03:05:59.682Z,13.04
2017-08-28T03:06:59.851Z,12.98
2017-08-28T03:07:53.881Z,12.90
2017-08-28T03:08:53.879Z,12.81
2017-08-28T03:09:48.860Z,12.88
2017-08-28T03:10:43.912Z,12.86
2017-08-28T03:11:43.948Z,12.83
2017-08-28T03:12:38.988Z,12.82
2017-08-28T03:13:34.063Z,12.82
2017-08-28T03:14:34.083Z,12.82
2017-08-28T03:15:29.088Z,12.76
2017-08-28T03:16:24.148Z,12.76
2017-08-28T03:17:25.210Z,12.71
2017-08-28T03:18:25.241Z,12.74
2017-08-28T03:19:25.251Z,12.88
2017-08-28T03:20:20.288Z,12.93
2017-08-28T03:21:14.293Z,13.01
2017-08-28T03:22:14.239Z,12.98
2017-08-28T03:23:09.375Z,12.98
2017-08-28T03:24:09.456Z,12.97
2017-08-28T03:25:03.463Z,12.93
2017-08-28T03:26:03.453Z,12.86
2017-08-28T03:26:58.493Z,12.84
2017-08-28T03:27:53.556Z,12.76
2017-08-28T03:28:53.512Z,12.82
2017-08-28T03:29:48.615Z,12.82
2017-08-28T03:30:43.616Z,12.86
2017-08-28T03:31:44.593Z,12.90
2017-08-28T03:32:44.709Z,12.87
2017-08-28T03:33:44.620Z,12.84
2017-08-28T03:34:39.690Z,12.83
2017-08-28T03:35:33.740Z,12.78
2017-08-28T03:36:33.722Z,12.76
2017-08-28T03:37:28.784Z,12.76
2017-08-28T03:38:28.973Z,12.72
2017-08-28T03:39:22.937Z,12.75
2017-08-28T03:40:22.905Z,12.70
2017-08-28T03:41:18.128Z,12.66
2017-08-28T03:42:12.953Z,12.66
2017-08-28T03:43:13.037Z,12.66
2017-08-28T03:44:08.115Z,12.64
2017-08-28T03:45:03.103Z,12.62
2017-08-28T03:46:04.137Z,12.59
2017-08-28T03:47:04.252Z,12.58
2017-08-28T03:48:04.265Z,12.54
2017-08-28T03:48:59.260Z,12.52
2017-08-28T03:49:59.311Z,12.51
2017-08-28T03:50:59.022Z,12.49
2017-08-28T03:51:53.118Z,12.46
2017-08-28T03:52:53.434Z,12.41
2017-08-28T03:53:48.182Z,12.40
2017-08-28T03:54:48.159Z,12.38
2017-08-28T03:55:48.291Z,12.38
2017-08-28T03:56:48.311Z,12.34
2017-08-28T03:57:42.628Z,12.28
2017-08-28T03:58:42.378Z,12.31
2017-08-28T03:59:37.599Z,12.28
2017-08-28T04:00:37.566Z,12.28
2017-08-28T04:01:31.486Z,12.24
2017-08-28T04:02:31.455Z,12.24
2017-08-28T04:03:26.897Z,12.20
2017-08-28T04:04:21.536Z,12.25
2017-08-28T04:05:21.701Z,12.28
2017-08-28T04:06:16.671Z,12.28
2017-08-28T04:07:11.786Z,12.32
2017-08-28T04:08:13.001Z,12.32
2017-08-28T04:09:12.723Z,12.38
2017-08-28T04:10:12.959Z,12.38
2017-08-28T04:11:07.985Z,12.37
2017-08-28T04:12:08.144Z,12.34
2017-08-28T04:13:08.071Z,12.34
2017-08-28T04:14:02.210Z,12.37
2017-08-28T04:15:02.144Z,12.34
2017-08-28T04:15:57.251Z,12.35
2017-08-28T04:16:52.255Z,12.38
2017-08-28T04:17:52.391Z,12.46
2017-08-28T04:18:47.300Z,12.47
2017-08-28T04:19:42.288Z,12.58
2017-08-28T04:20:42.423Z,12.57
2017-08-28T04:21:37.465Z,12.62
2017-08-28T04:22:32.492Z,12.62
2017-08-28T04:23:32.446Z,12.60
2017-08-28T04:24:27.508Z,12.60
2017-08-28T04:25:22.559Z,12.58
2017-08-28T04:26:16.553Z,12.52
2017-08-28T04:27:16.684Z,12.50
2017-08-28T04:28:11.630Z,12.48
2017-08-28T04:29:11.643Z,12.48
2017-08-28T04:30:11.701Z,12.48
2017-08-28T04:31:11.810Z,12.46
2017-08-28T04:32:05.791Z,12.44
2017-08-28T04:33:05.791Z,12.46
2017-08-28T04:34:00.924Z,12.46
2017-08-28T04:34:55.988Z,12.46
2017-08-28T04:35:50.010Z,12.47
2017-08-28T04:36:49.952Z,12.44
2017-08-28T04:37:45.180Z,12.48
2017-08-28T04:38:40.017Z,12.50
2017-08-28T04:39:40.108Z,12.38
2017-08-28T04:40:35.136Z,12.42
2017-08-28T04:41:35.161Z,12.46
2017-08-28T04:42:36.203Z,12.44
2017-08-28T04:43:37.179Z,12.47
2017-08-28T04:44:31.305Z,12.41
2017-08-28T04:45:31.327Z,12.47
2017-08-28T04:46:26.272Z,12.48
2017-08-28T04:47:26.294Z,12.50
2017-08-28T04:48:27.321Z,12.44
2017-08-28T04:49:28.433Z,12.49
2017-08-28T04:50:29.542Z,12.44
2017-08-28T04:51:23.458Z,12.43
2017-08-28T04:52:23.512Z,12.53
2017-08-28T04:53:18.566Z,12.56
2017-08-28T04:54:18.580Z,12.56
2017-08-28T04:55:19.617Z,12.54
2017-08-28T04:56:20.731Z,12.58
2017-08-28T04:57:21.688Z,12.53
2017-08-28T04:58:15.746Z,12.62
2017-08-28T04:59:15.822Z,12.60
2017-08-28T05:00:10.839Z,12.65
2017-08-28T05:01:05.832Z,12.72
2017-08-28T05:02:05.887Z,12.79
2017-08-28T05:03:05.933Z,12.84
2017-08-28T05:03:54.903Z,12.86
2017-08-28T05:04:43.912Z,12.88
2017-08-28T05:05:32.999Z,12.89
2017-08-28T05:06:21.076Z,12.90
2017-08-28T05:07:15.137Z,12.95
2017-08-28T05:08:03.171Z,12.94
2017-08-28T05:08:52.261Z,12.94
2017-08-28T05:09:40.199Z,12.97
2017-08-28T05:10:29.271Z,12.92
2017-08-28T05:11:17.280Z,12.93
2017-08-28T05:12:11.346Z,12.99
2017-08-28T05:13:11.302Z,13.02
2017-08-28T05:14:11.476Z,13.02
2017-08-28T05:15:11.442Z,13.04
2017-08-28T05:16:11.539Z,13.10
2017-08-28T05:17:11.496Z,13.15
2017-08-28T05:18:11.497Z,13.14
2017-08-28T05:19:06.619Z,13.07
2017-08-28T05:20:01.672Z,13.20
2017-08-28T05:20:50.733Z,13.30
2017-08-28T05:21:38.733Z,13.36
2017-08-28T05:22:27.738Z,13.33
2017-08-28T05:23:15.796Z,13.37
2017-08-28T05:24:04.797Z,13.34
2017-08-28T05:24:53.835Z,13.32
2017-08-28T05:25:42.946Z,13.42
2017-08-28T05:26:31.945Z,13.46
2017-08-28T05:27:32.100Z,13.45
2017-08-28T05:28:32.015Z,13.46
2017-08-28T05:29:32.126Z,13.45
2017-08-28T05:30:26.117Z,13.48
2017-08-28T05:31:26.175Z,13.51
2017-08-28T05:32:15.295Z,13.62
2017-08-28T05:33:04.249Z,13.68
2017-08-28T05:33:52.294Z,13.81
2017-08-28T05:34:52.295Z,14.14
2017-08-28T05:35:47.349Z,14.25
2017-08-28T05:36:35.406Z,14.54
2017-08-28T05:37:23.544Z,14.76
2017-08-28T05:38:17.445Z,15.08
2017-08-28T05:39:11.468Z,15.08
2017-08-28T05:40:06.644Z,15.36
2017-08-28T05:41:01.595Z,15.55
2017-08-28T05:41:49.691Z,15.73
2017-08-28T05:42:44.713Z,15.91
2017-08-28T05:43:44.491Z,16.01
2017-08-28T05:44:33.631Z,16.08
2017-08-28T05:45:21.682Z,16.20
2017-08-28T05:46:10.700Z,16.52
2017-08-28T05:46:58.836Z,16.72
2017-08-28T05:47:47.993Z,16.76
2017-08-28T05:48:41.952Z,16.25
2017-08-28T05:49:30.928Z,16.17
2017-08-28T05:50:24.970Z,16.13
2017-08-28T05:51:12.787Z,16.20
2017-08-28T05:52:02.220Z,15.84
2017-08-28T05:52:56.211Z,15.81
2017-08-28T05:53:57.230Z,15.80
2017-08-28T05:54:52.332Z,15.24
2017-08-28T05:55:46.369Z,15.04
2017-08-28T05:56:34.373Z,15.22
2017-08-28T05:57:22.291Z,15.28
2017-08-28T05:58:22.168Z,15.17
2017-08-28T05:59:17.476Z,14.95
2017-08-28T06:00:17.526Z,14.57
2017-08-28T06:01:11.627Z,14.59
2017-08-28T06:02:11.610Z,14.72
2017-08-28T06:03:06.100Z,14.73
2017-08-28T06:03:53.698Z,14.77
2017-08-28T06:04:41.695Z,14.84
2017-08-28T06:05:42.764Z,15.03
2017-08-28T06:06:36.561Z,15.31
2017-08-28T06:07:30.793Z,15.60
2017-08-28T06:08:24.845Z,15.64
2017-08-28T06:09:12.970Z,16.09
2017-08-28T06:10:06.993Z,16.39
2017-08-28T06:11:01.891Z,17.08
2017-08-28T06:11:56.152Z,17.79
2017-08-28T06:12:57.128Z,17.42
2017-08-28T06:13:51.146Z,17.30
2017-08-28T06:14:46.243Z,17.53
2017-08-28T06:15:46.326Z,17.74
2017-08-28T06:16:41.369Z,17.74
2017-08-28T06:17:35.393Z,17.49
2017-08-28T06:18:24.386Z,17.70
2017-08-28T06:19:19.553Z,17.81
2017-08-28T06:20:19.550Z,17.60
2017-08-28T06:21:13.558Z,17.84
2017-08-28T06:22:08.578Z,18.60
2017-08-28T06:22:57.641Z,18.58
2017-08-28T06:23:57.711Z,18.86
2017-08-28T06:24:52.782Z,18.73
2017-08-28T06:25:46.731Z,18.54
2017-08-28T06:26:40.807Z,18.46
2017-08-28T06:27:35.923Z,18.40
2017-08-28T06:28:29.889Z,18.73
2017-08-28T06:29:24.085Z,19.19
2017-08-28T06:30:19.023Z,19.54
2017-08-28T06:31:08.124Z,19.82
2017-08-28T06:32:03.114Z,19.86
2017-08-28T06:32:58.144Z,20.01
2017-08-28T06:33:47.200Z,20.33
2017-08-28T06:34:35.355Z,20.50
2017-08-28T06:35:23.417Z,20.70
2017-08-28T06:36:18.343Z,20.68
2017-08-28T06:37:07.356Z,20.74
2017-08-28T06:38:01.472Z,20.77
2017-08-28T06:38:55.487Z,20.78
2017-08-28T06:39:43.582Z,20.66
2017-08-28T06:40:37.717Z,20.83
2017-08-28T06:41:31.719Z,21.02
2017-08-28T06:42:32.680Z,21.32
2017-08-28T06:43:33.884Z,21.72
2017-08-28T06:44:27.740Z,21.92
2017-08-28T06:45:16.843Z,21.72
2017-08-28T06:46:12.179Z,21.76
2017-08-28T06:47:06.922Z,21.58
2017-08-28T06:48:01.010Z,21.69
2017-08-28T06:48:55.066Z,22.26
2017-08-28T06:49:43.097Z,22.03
2017-08-28T06:50:37.216Z,22.09
2017-08-28T06:51:25.237Z,22.00
2017-08-28T06:52:26.288Z,22.15
2017-08-28T06:53:21.310Z,22.47
2017-08-28T06:54:09.415Z,22.65
2017-08-28T06:54:58.444Z,22.50
2017-08-28T06:55:47.408Z,22.48
2017-08-28T06:56:36.616Z,21.87
2017-08-28T06:57:31.637Z,21.25
2017-08-28T06:58:26.683Z,21.03
2017-08-28T06:59:27.707Z,21.08
2017-08-28T07:00:21.791Z,21.29
2017-08-28T07:01:16.763Z,21.67
2017-08-28T07:02:04.891Z,21.80
2017-08-28T07:02:58.870Z,21.84
2017-08-28T07:03:58.945Z,22.06
2017-08-28T07:04:47.061Z,21.85
2017-08-28T07:05:36.088Z,21.88
2017-08-28T07:06:25.175Z,22.31
2017-08-28T07:07:25.187Z,22.70
2017-08-28T07:08:20.180Z,23.08
2017-08-28T07:09:26.244Z,23.26
2017-08-28T07:10:20.340Z,23.46
2017-08-28T07:11:15.430Z,23.54
2017-08-28T07:12:04.385Z,23.61
2017-08-28T07:12:53.550Z,23.11
2017-08-28T07:13:47.465Z,22.67
2017-08-28T07:14:42.609Z,22.61
2017-08-28T07:15:36.558Z,22.37
2017-08-28T07:16:24.678Z,22.08
2017-08-28T07:17:24.717Z,22.37
2017-08-28T07:18:18.771Z,22.58
2017-08-28T07:19:13.753Z,23.25
2017-08-28T07:20:07.889Z,23.67
2017-08-28T07:20:55.937Z,23.58
2017-08-28T07:21:51.010Z,23.59
2017-08-28T07:22:40.061Z,23.50
2017-08-28T07:23:34.171Z,23.76
2017-08-28T07:24:35.215Z,23.47
2017-08-28T07:25:29.218Z,22.80
2017-08-28T07:26:18.310Z,22.78
2017-08-28T07:27:07.294Z,22.81
2017-08-28T07:28:02.453Z,23.12
2017-08-28T07:28:51.471Z,23.22
2017-08-28T07:29:52.538Z,23.09
2017-08-28T07:30:46.577Z,23.06
2017-08-28T07:31:35.610Z,23.44
2017-08-28T07:32:24.732Z,23.56
2017-08-28T07:33:18.765Z,23.60
2017-08-28T07:34:07.868Z,23.69
2017-08-28T07:35:02.924Z,23.73
2017-08-28T07:35:57.018Z,23.30
2017-08-28T07:36:56.963Z,23.47
2017-08-28T07:37:46.090Z,23.64
2017-08-28T07:38:41.098Z,24.03
2017-08-28T07:39:35.194Z,24.06
2017-08-28T07:40:24.219Z,23.78
2017-08-28T07:41:24.192Z,23.91
2017-08-28T07:42:18.278Z,23.88
2017-08-28T07:43:18.337Z,23.67
2017-08-28T07:44:12.384Z,23.94
2017-08-28T07:45:07.485Z,24.05
2017-08-28T07:46:07.466Z,24.46
2017-08-28T07:46:56.596Z,24.55
2017-08-28T07:47:45.666Z,24.58
2017-08-28T07:48:39.716Z,24.30
2017-08-28T07:49:39.717Z,24.08
2017-08-28T07:50:33.880Z,23.70
2017-08-28T07:51:28.909Z,23.88
2017-08-28T07:52:22.924Z,24.15
2017-08-28T07:53:18.054Z,24.17
2017-08-28T07:54:06.978Z,23.93
2017-08-28T07:54:56.188Z,24.00
2017-08-28T07:55:50.204Z,24.03
2017-08-28T07:56:38.215Z,23.81
2017-08-28T07:57:27.239Z,24.09
2017-08-28T07:58:28.331Z,24.46
2017-08-28T07:59:22.327Z,24.91
2017-08-28T08:00:11.507Z,24.80
2017-08-28T08:01:00.560Z,23.89
2017-08-28T08:01:54.576Z,23.06
2017-08-28T08:02:48.626Z,22.64
2017-08-28T08:03:42.654Z,22.42
2017-08-28T08:04:43.762Z,23.05
2017-08-28T08:05:31.774Z,23.18
2017-08-28T08:06:25.893Z,23.20
2017-08-28T08:07:14.900Z,22.82
2017-08-28T08:08:03.956Z,22.75
2017-08-28T08:08:58.045Z,22.49
2017-08-28T08:09:46.048Z,22.28
2017-08-28T08:10:40.149Z,22.16
2017-08-28T08:11:28.198Z,22.47
2017-08-28T08:12:17.215Z,22.77
2017-08-28T08:13:17.356Z,23.12
2017-08-28T08:14:06.418Z,23.38
2017-08-28T08:14:55.455Z,23.53
2017-08-28T08:15:49.493Z,23.75
2017-08-28T08:16:37.591Z,24.29
2017-08-28T08:17:31.572Z,24.82
2017-08-28T08:18:31.679Z,25.32
2017-08-28T08:19:19.681Z,25.61
2017-08-28T08:20:08.748Z,25.51
2017-08-28T08:20:57.837Z,25.22
2017-08-28T08:21:57.966Z,24.40
2017-08-28T08:22:51.927Z,23.74
2017-08-28T08:23:46.071Z,23.84
2017-08-28T08:24:34.122Z,24.45
2017-08-28T08:25:29.148Z,25.20
2017-08-28T08:26:18.273Z,25.41
2017-08-28T08:27:13.394Z,25.39
2017-08-28T08:28:14.378Z,25.15
2017-08-28T08:29:14.443Z,25.17
2017-08-28T08:30:02.375Z,25.16
2017-08-28T08:31:02.536Z,25.87
2017-08-28T08:31:57.557Z,26.47
2017-08-28T08:32:51.827Z,26.73
2017-08-28T08:33:45.681Z,26.68
2017-08-28T08:34:45.715Z,27.02
2017-08-28T08:35:39.820Z,27.13
2017-08-28T08:36:28.863Z,27.02
2017-08-28T08:37:29.889Z,26.97
2017-08-28T08:38:24.981Z,26.94
2017-08-28T08:39:20.039Z,26.83
2017-08-28T08:40:14.136Z,26.16
2017-08-28T08:41:03.150Z,26.46
2017-08-28T08:42:04.276Z,26.69
2017-08-28T08:43:04.254Z,26.70
2017-08-28T08:43:53.335Z,27.09
2017-08-28T08:44:42.401Z,27.24
2017-08-28T08:45:31.485Z,27.28
2017-08-28T08:46:25.519Z,27.37
2017-08-28T08:47:20.591Z,26.79
2017-08-28T08:48:15.634Z,26.53
2017-08-28T08:49:09.699Z,25.86
2017-08-28T08:50:04.778Z,25.54
2017-08-28T08:50:59.762Z,25.44
2017-08-28T08:51:53.849Z,25.37
2017-08-28T08:52:48.062Z,25.35
2017-08-28T08:53:48.011Z,25.60
2017-08-28T08:54:37.066Z,25.83
2017-08-28T08:55:25.129Z,26.27
2017-08-28T08:56:13.185Z,25.80
2017-08-28T08:57:01.261Z,25.46
2017-08-28T08:57:49.388Z,25.11
2017-08-28T08:58:43.361Z,25.34
2017-08-28T08:59:37.495Z,25.62
2017-08-28T09:00:31.469Z,25.62
2017-08-28T09:01:25.606Z,25.65
2017-08-28T09:02:25.547Z,25.17
2017-08-28T09:03:14.638Z,24.70
2017-08-28T09:04:08.722Z,24.68
2017-08-28T09:04:57.800Z,24.88
2017-08-28T09:05:57.762Z,25.77
2017-08-28T09:06:51.834Z,26.45
2017-08-28T09:07:46.997Z,26.97
2017-08-28T09:08:36.039Z,27.22
2017-08-28T09:09:30.104Z,27.26
2017-08-28T09:10:18.103Z,26.97
2017-08-28T09:11:12.232Z,26.82
2017-08-28T09:12:06.299Z,27.25
2017-08-28T09:12:55.403Z,27.59
2017-08-28T09:13:50.469Z,28.16
2017-08-28T09:14:44.489Z,28.00
2017-08-28T09:15:38.611Z,27.56
2017-08-28T09:16:27.618Z,27.09
2017-08-28T09:17:22.715Z,27.30
2017-08-28T09:18:17.758Z,27.06
2017-08-28T09:19:17.808Z,26.78
2017-08-28T09:20:17.847Z,26.39
2017-08-28T09:21:11.976Z,26.40
2017-08-28T09:22:11.948Z,26.41
2017-08-28T09:23:07.114Z,26.40
2017-08-28T09:24:01.117Z,25.50
2017-08-28T09:24:50.271Z,25.24
2017-08-28T09:25:45.216Z,25.29
2017-08-28T09:26:34.325Z,25.38
2017-08-28T09:27:23.358Z,25.24
2017-08-28T09:28:17.426Z,25.35
2017-08-28T09:29:11.579Z,25.08
2017-08-28T09:30:06.545Z,25.22
2017-08-28T09:30:55.662Z,25.13
2017-08-28T09:31:55.682Z,25.08
2017-08-28T09:32:43.700Z,24.84
2017-08-28T09:33:31.807Z,24.96
2017-08-28T09:34:26.983Z,25.05
2017-08-28T09:35:15.903Z,25.22
2017-08-28T09:36:04.988Z,25.20
2017-08-28T09:37:00.084Z,25.05
2017-08-28T09:37:48.225Z,25.06
2017-08-28T09:38:48.131Z,25.39
2017-08-28T09:39:36.239Z,25.33
2017-08-28T09:40:25.353Z,25.73
2017-08-28T09:41:20.377Z,25.96
2017-08-28T09:42:15.507Z,26.19
2017-08-28T09:43:10.533Z,26.30
2017-08-28T09:44:04.531Z,26.61
2017-08-28T09:44:59.596Z,26.84
2017-08-28T09:45:54.679Z,26.98
2017-08-28T09:46:48.742Z,27.13
2017-08-28T09:47:48.832Z,27.57
2017-08-28T09:48:48.826Z,28.09
2017-08-28T09:49:43.096Z,27.85
2017-08-28T09:50:38.017Z,27.44
2017-08-28T09:51:27.071Z,26.84
2017-08-28T09:52:21.070Z,26.95
2017-08-28T09:53:21.161Z,27.22
2017-08-28T09:54:16.314Z,27.54
2017-08-28T09:55:10.369Z,27.41
2017-08-28T09:56:04.393Z,27.55
2017-08-28T09:56:59.454Z,27.73
2017-08-28T09:57:53.589Z,27.55
2017-08-28T09:58:47.612Z,27.66
2017-08-28T09:59:35.658Z,28.00
2017-08-28T10:00:29.841Z,28.28
2017-08-28T10:01:23.887Z,28.11
2017-08-28T10:02:12.889Z,27.34
2017-08-28T10:03:01.884Z,26.73
2017-08-28T10:03:57.028Z,26.35
2017-08-28T10:04:52.048Z,25.81
2017-08-28T10:05:41.164Z,25.56
2017-08-28T10:06:29.195Z,25.65
2017-08-28T10:07:23.258Z,25.83
2017-08-28T10:08:17.357Z,26.04
2017-08-28T10:09:06.354Z,25.98
2017-08-28T10:09:54.482Z,25.76
2017-08-28T10:10:48.776Z,25.86
2017-08-28T10:11:43.635Z,26.29
2017-08-28T10:12:32.668Z,26.45
2017-08-28T10:13:26.731Z,26.77
2017-08-28T10:14:15.771Z,26.69
2017-08-28T10:15:09.861Z,26.67
2017-08-28T10:15:59.167Z,27.12
2017-08-28T10:16:54.058Z,26.97
2017-08-28T10:17:54.271Z,27.17
2017-08-28T10:18:49.083Z,27.55
2017-08-28T10:19:43.282Z,27.88
2017-08-28T10:20:37.353Z,27.88
2017-08-28T10:21:26.422Z,27.83
2017-08-28T10:22:21.450Z,27.92
2017-08-28T10:23:15.469Z,27.77
2017-08-28T10:24:09.655Z,27.33
2017-08-28T10:24:58.738Z,27.34
2017-08-28T10:25:47.755Z,27.23
2017-08-28T10:26:42.838Z,27.60
2017-08-28T10:27:31.950Z,27.52
2017-08-28T10:28:31.984Z,27.70
2017-08-28T10:29:32.127Z,28.06
2017-08-28T10:30:32.213Z,28.49
2017-08-28T10:31:21.262Z,28.54
2017-08-28T10:32:15.348Z,28.38
2017-08-28T10:33:09.477Z,28.18
2017-08-28T10:34:04.528Z,28.37
2017-08-28T10:34:59.555Z,28.30
2017-08-28T10:35:54.687Z,28.28
2017-08-28T10:36:49.730Z,28.20
2017-08-28T10:37:50.185Z,28.02
2017-08-28T10:38:50.846Z,27.69
2017-08-28T10:39:39.976Z,27.96
2017-08-28T10:40:33.986Z,27.60
2017-08-28T10:41:29.079Z,27.68
2017-08-28T10:42:18.218Z,27.99
2017-08-28T10:43:13.287Z,28.10
2017-08-28T10:44:02.360Z,28.07
2017-08-28T10:45:02.413Z,28.06
2017-08-28T10:45:51.476Z,28.32
2017-08-28T10:46:51.533Z,28.65
2017-08-28T10:47:51.660Z,29.10
2017-08-28T10:48:40.646Z,29.66
2017-08-28T10:49:35.804Z,30.18
2017-08-28T10:50:29.788Z,30.50
2017-08-28T10:51:29.910Z,30.94
2017-08-28T10:52:24.950Z,31.33
2017-08-28T10:53:14.082Z,31.25
2017-08-28T10:54:08.197Z,31.15
2017-08-28T10:55:03.338Z,30.03
2017-08-28T10:56:03.354Z,28.65
2017-08-28T10:57:04.429Z,28.51
2017-08-28T10:57:59.469Z,28.72
2017-08-28T10:58:54.593Z,28.95
2017-08-28T10:59:54.738Z,28.99
2017-08-28T11:00:42.748Z,28.70
2017-08-28T11:01:31.770Z,28.62
2017-08-28T11:02:25.888Z,29.14
2017-08-28T11:03:25.975Z,29.90
2017-08-28T11:04:20.097Z,30.47
2017-08-28T11:05:09.213Z,30.04
2017-08-28T11:06:09.223Z,29.89
2017-08-28T11:07:04.288Z,29.75
2017-08-28T11:07:59.446Z,29.87
2017-08-28T11:08:59.530Z,30.07
2017-08-28T11:09:59.574Z,30.43
2017-08-28T11:10:47.681Z,30.80
2017-08-28T11:11:53.654Z,30.63
2017-08-28T11:12:42.770Z,30.04
2017-08-28T11:13:36.903Z,28.97
2017-08-28T11:14:37.996Z,28.91
2017-08-28T11:15:33.074Z,29.15
2017-08-28T11:16:28.139Z,29.42
2017-08-28T11:17:22.313Z,29.44
2017-08-28T11:18:17.330Z,29.51
2017-08-28T11:19:11.432Z,29.62
2017-08-28T11:20:06.489Z,29.64
2017-08-28T11:21:01.609Z,29.73
2017-08-28T11:21:50.619Z,29.75
2017-08-28T11:22:51.793Z,29.46
2017-08-28T11:23:45.811Z,28.87
2017-08-28T11:24:45.888Z,27.91
2017-08-28T11:25:40.930Z,28.22
2017-08-28T11:26:35.005Z,28.72
2017-08-28T11:27:24.150Z,29.16
2017-08-28T11:28:13.142Z,29.07
2017-08-28T11:29:13.269Z,29.49
2017-08-28T11:30:07.362Z,29.87
2017-08-28T11:31:01.440Z,30.25
2017-08-28T11:31:55.471Z,30.79
2017-08-28T11:32:49.676Z,30.49
2017-08-28T11:33:50.658Z,30.18
2017-08-28T11:34:45.817Z,30.10
2017-08-28T11:35:34.812Z,30.49
2017-08-28T11:36:28.893Z,30.86
2017-08-28T11:37:23.040Z,30.85
2017-08-28T11:38:12.083Z,30.66
2017-08-28T11:39:13.129Z,30.50
2017-08-28T11:40:13.251Z,30.34
2017-08-28T11:41:07.377Z,30.59
2017-08-28T11:42:07.410Z,30.82
2017-08-28T11:43:02.500Z,30.95
2017-08-28T11:44:02.600Z,31.13
2017-08-28T11:44:57.624Z,31.35
2017-08-28T11:45:57.784Z,31.73
2017-08-28T11:46:52.779Z,32.17
2017-08-28T11:47:46.865Z,32.23
2017-08-28T11:48:46.964Z,31.22
2017-08-28T11:49:47.308Z,30.22
2017-08-28T11:50:41.116Z,29.79
2017-08-28T11:51:30.253Z,29.82